Portada
METAR-TAF:

METAR-TAF

Aeroports :

Mendoza, Argentina

latitud: 32-50S, longitud: 068-47W, altitud: 705 m

Observació

L'informe es va fer fa 44 minuts, a les 22:00 UTC
Vent 2 kt del Est
Temperatura 16°C
Humitat 63%
Pressió 1021 hPa
Visibilitat 10 km o més
sense núvols per sota de 1500 mi sense presència de cumulonimbus.

METAR: SAME 232200Z 09002KT CAVOK 16/09 Q1021

Hora: 19:44 (22:44 UTC)

Pronòstic

L'informe es va fer fa 5 hores i 44 minuts, a les 17:00 UTC
Pronòstic vàlid del 23 a les 18 UTC al 24 a les 18 UTC
Vent 5 kt del Sud-Est
Visibilitat 10 km o més
sense núvols per sota de 1500 mi sense presència de cumulonimbus.

TAF: SAME 231700Z 2318/2418 14005KT CAVOK TX22/2320Z TN06/2410Z

Observacions i pronòstics meteorològics de més de 4000 aeroports (METAR i TAF).

Les estacions disponibles són els punts grocs i vermells al mapa.

Posi el ratolí al punt desitjat per veure el nom de l'estació.

Feu clic per veure les observacions i els pronòstics meteorològics.

Per canviar el mapa: feu clic els botons verds amb una creu de color negre per apropar; al botó verd amb un guió per allunyar la imatge; o en les fletxes verdes per a mapes adjacents.


METAR-TAF: